sensor_id;sensor_type;location;lat;lon;timestamp;P1;durP1;ratioP1;P2;durP2;ratioP2
33421;SDS011;19763;55.798;37.782;2022-11-20T00:01:49;25.50;;;17.33;;
33421;SDS011;19763;55.798;37.782;2022-11-20T00:04:14;20.50;;;14.68;;
33421;SDS011;19763;55.798;37.782;2022-11-20T00:06:40;21.48;;;14.70;;
33421;SDS011;19763;55.798;37.782;2022-11-20T00:09:05;21.95;;;15.15;;
33421;SDS011;19763;55.798;37.782;2022-11-20T00:11:31;22.25;;;15.77;;
33421;SDS011;19763;55.798;37.782;2022-11-20T00:13:59;26.67;;;16.30;;
33421;SDS011;19763;55.798;37.782;2022-11-20T00:16:26;24.92;;;16.88;;
33421;SDS011;19763;55.798;37.782;2022-11-20T00:18:53;19.05;;;12.70;;
33421;SDS011;19763;55.798;37.782;2022-11-20T00:21:20;19.00;;;13.68;;
33421;SDS011;19763;55.798;37.782;2022-11-20T00:23:48;17.40;;;12.43;;
33421;SDS011;19763;55.798;37.782;2022-11-20T00:26:15;20.45;;;13.75;;
33421;SDS011;19763;55.798;37.782;2022-11-20T00:28:42;20.63;;;14.82;;
33421;SDS011;19763;55.798;37.782;2022-11-20T00:33:36;14.23;;;10.07;;
33421;SDS011;19763;55.798;37.782;2022-11-20T00:36:06;16.30;;;11.13;;
33421;SDS011;19763;55.798;37.782;2022-11-20T00:38:33;17.48;;;12.80;;
33421;SDS011;19763;55.798;37.782;2022-11-20T00:41:00;16.90;;;13.25;;
33421;SDS011;19763;55.798;37.782;2022-11-20T00:43:27;20.17;;;13.93;;
33421;SDS011;19763;55.798;37.782;2022-11-20T00:45:56;17.85;;;12.80;;
33421;SDS011;19763;55.798;37.782;2022-11-20T00:48:25;18.00;;;11.35;;
33421;SDS011;19763;55.798;37.782;2022-11-20T00:50:52;16.67;;;12.13;;
33421;SDS011;19763;55.798;37.782;2022-11-20T00:53:18;16.67;;;13.23;;
33421;SDS011;19763;55.798;37.782;2022-11-20T00:55:54;18.33;;;12.90;;
33421;SDS011;19763;55.798;37.782;2022-11-20T00:58:23;16.23;;;11.60;;
33421;SDS011;19763;55.798;37.782;2022-11-20T01:00:49;15.43;;;11.15;;
33421;SDS011;19763;55.798;37.782;2022-11-20T01:03:18;15.60;;;12.40;;
33421;SDS011;19763;55.798;37.782;2022-11-20T01:05:44;15.75;;;11.57;;
33421;SDS011;19763;55.798;37.782;2022-11-20T01:08:10;16.33;;;11.75;;
33421;SDS011;19763;55.798;37.782;2022-11-20T01:10:35;15.55;;;11.68;;
33421;SDS011;19763;55.798;37.782;2022-11-20T01:13:01;14.70;;;10.80;;
33421;SDS011;19763;55.798;37.782;2022-11-20T01:15:45;14.63;;;10.70;;
33421;SDS011;19763;55.798;37.782;2022-11-20T01:18:10;13.57;;;11.05;;
33421;SDS011;19763;55.798;37.782;2022-11-20T01:20:36;14.13;;;10.70;;
33421;SDS011;19763;55.798;37.782;2022-11-20T01:23:02;15.82;;;10.85;;
33421;SDS011;19763;55.798;37.782;2022-11-20T01:25:28;15.90;;;10.15;;
33421;SDS011;19763;55.798;37.782;2022-11-20T01:27:54;12.32;;;8.88;;
33421;SDS011;19763;55.798;37.782;2022-11-20T01:30:20;13.07;;;10.50;;
33421;SDS011;19763;55.798;37.782;2022-11-20T01:32:45;14.15;;;10.13;;
33421;SDS011;19763;55.798;37.782;2022-11-20T01:35:11;16.65;;;11.77;;
33421;SDS011;19763;55.798;37.782;2022-11-20T01:37:37;15.02;;;10.50;;
33421;SDS011;19763;55.798;37.782;2022-11-20T01:40:02;12.65;;;10.48;;
33421;SDS011;19763;55.798;37.782;2022-11-20T01:42:28;16.13;;;11.23;;
33421;SDS011;19763;55.798;37.782;2022-11-20T01:48:16;14.95;;;10.65;;
33421;SDS011;19763;55.798;37.782;2022-11-20T01:50:43;15.15;;;10.85;;
33421;SDS011;19763;55.798;37.782;2022-11-20T01:53:10;14.15;;;10.82;;
33421;SDS011;19763;55.798;37.782;2022-11-20T01:55:41;15.88;;;10.45;;
33421;SDS011;19763;55.798;37.782;2022-11-20T01:58:12;13.82;;;10.07;;
33421;SDS011;19763;55.798;37.782;2022-11-20T02:00:39;13.50;;;9.75;;
33421;SDS011;19763;55.798;37.782;2022-11-20T02:03:07;13.05;;;9.70;;
33421;SDS011;19763;55.798;37.782;2022-11-20T02:08:12;14.15;;;9.98;;
33421;SDS011;19763;55.798;37.782;2022-11-20T02:10:38;14.90;;;10.38;;
33421;SDS011;19763;55.798;37.782;2022-11-20T02:13:03;15.38;;;10.52;;
33421;SDS011;19763;55.798;37.782;2022-11-20T02:15:48;13.82;;;10.20;;
33421;SDS011;19763;55.798;37.782;2022-11-20T02:18:14;16.27;;;10.93;;
33421;SDS011;19763;55.798;37.782;2022-11-20T02:20:42;17.00;;;11.48;;
33421;SDS011;19763;55.798;37.782;2022-11-20T02:25:46;16.23;;;10.52;;
33421;SDS011;19763;55.798;37.782;2022-11-20T02:28:12;15.80;;;11.35;;
33421;SDS011;19763;55.798;37.782;2022-11-20T02:30:38;16.95;;;11.82;;
33421;SDS011;19763;55.798;37.782;2022-11-20T02:33:04;19.27;;;12.10;;
33421;SDS011;19763;55.798;37.782;2022-11-20T02:37:59;13.68;;;10.07;;
33421;SDS011;19763;55.798;37.782;2022-11-20T02:40:27;13.23;;;10.50;;
33421;SDS011;19763;55.798;37.782;2022-11-20T02:42:54;16.23;;;11.32;;
33421;SDS011;19763;55.798;37.782;2022-11-20T02:45:20;14.15;;;10.65;;
33421;SDS011;19763;55.798;37.782;2022-11-20T02:47:47;15.10;;;11.02;;
33421;SDS011;19763;55.798;37.782;2022-11-20T02:50:13;16.02;;;10.98;;
33421;SDS011;19763;55.798;37.782;2022-11-20T02:52:39;25.05;;;11.77;;
33421;SDS011;19763;55.798;37.782;2022-11-20T02:55:05;13.10;;;9.43;;
33421;SDS011;19763;55.798;37.782;2022-11-20T02:57:31;14.95;;;10.50;;
33421;SDS011;19763;55.798;37.782;2022-11-20T02:59:56;15.73;;;10.48;;
33421;SDS011;19763;55.798;37.782;2022-11-20T03:02:22;13.43;;;9.85;;
33421;SDS011;19763;55.798;37.782;2022-11-20T03:04:47;11.68;;;8.40;;
33421;SDS011;19763;55.798;37.782;2022-11-20T03:07:13;14.60;;;10.60;;
33421;SDS011;19763;55.798;37.782;2022-11-20T03:09:39;15.65;;;10.38;;
33421;SDS011;19763;55.798;37.782;2022-11-20T03:12:04;15.07;;;9.70;;
33421;SDS011;19763;55.798;37.782;2022-11-20T03:14:30;13.10;;;9.68;;
33421;SDS011;19763;55.798;37.782;2022-11-20T03:16:56;13.32;;;9.82;;
33421;SDS011;19763;55.798;37.782;2022-11-20T03:19:22;16.17;;;11.38;;
33421;SDS011;19763;55.798;37.782;2022-11-20T03:21:48;12.90;;;9.73;;
33421;SDS011;19763;55.798;37.782;2022-11-20T03:24:14;15.82;;;11.00;;
33421;SDS011;19763;55.798;37.782;2022-11-20T03:26:39;16.80;;;10.23;;
33421;SDS011;19763;55.798;37.782;2022-11-20T03:29:05;12.85;;;9.55;;
33421;SDS011;19763;55.798;37.782;2022-11-20T03:31:32;13.90;;;10.23;;
33421;SDS011;19763;55.798;37.782;2022-11-20T03:34:00;16.65;;;11.63;;
33421;SDS011;19763;55.798;37.782;2022-11-20T03:36:27;15.52;;;10.35;;
33421;SDS011;19763;55.798;37.782;2022-11-20T03:38:56;15.02;;;10.98;;
33421;SDS011;19763;55.798;37.782;2022-11-20T03:41:23;15.15;;;10.98;;
33421;SDS011;19763;55.798;37.782;2022-11-20T03:43:54;14.25;;;10.43;;
33421;SDS011;19763;55.798;37.782;2022-11-20T03:46:22;16.15;;;11.27;;
33421;SDS011;19763;55.798;37.782;2022-11-20T03:48:48;15.38;;;10.07;;
33421;SDS011;19763;55.798;37.782;2022-11-20T03:51:16;14.50;;;10.57;;
33421;SDS011;19763;55.798;37.782;2022-11-20T03:53:49;15.35;;;10.77;;
33421;SDS011;19763;55.798;37.782;2022-11-20T03:56:16;13.57;;;9.95;;
33421;SDS011;19763;55.798;37.782;2022-11-20T03:58:44;17.33;;;11.05;;
33421;SDS011;19763;55.798;37.782;2022-11-20T04:01:11;14.35;;;11.02;;
33421;SDS011;19763;55.798;37.782;2022-11-20T04:03:39;15.68;;;11.65;;
33421;SDS011;19763;55.798;37.782;2022-11-20T04:06:07;14.27;;;10.40;;
33421;SDS011;19763;55.798;37.782;2022-11-20T04:08:36;14.50;;;10.93;;
33421;SDS011;19763;55.798;37.782;2022-11-20T04:11:08;15.63;;;10.45;;
33421;SDS011;19763;55.798;37.782;2022-11-20T04:13:41;15.13;;;10.80;;
33421;SDS011;19763;55.798;37.782;2022-11-20T04:16:07;14.90;;;11.10;;
33421;SDS011;19763;55.798;37.782;2022-11-20T04:18:35;15.70;;;11.02;;
33421;SDS011;19763;55.798;37.782;2022-11-20T04:21:01;14.40;;;10.77;;
33421;SDS011;19763;55.798;37.782;2022-11-20T04:23:28;15.25;;;11.05;;
33421;SDS011;19763;55.798;37.782;2022-11-20T04:25:54;15.00;;;10.27;;
33421;SDS011;19763;55.798;37.782;2022-11-20T04:28:20;14.80;;;10.27;;
33421;SDS011;19763;55.798;37.782;2022-11-20T04:30:45;14.40;;;10.32;;
33421;SDS011;19763;55.798;37.782;2022-11-20T04:33:11;13.90;;;10.45;;
33421;SDS011;19763;55.798;37.782;2022-11-20T04:35:37;14.10;;;10.88;;
33421;SDS011;19763;55.798;37.782;2022-11-20T04:38:03;14.23;;;10.50;;
33421;SDS011;19763;55.798;37.782;2022-11-20T04:40:29;17.58;;;10.30;;
33421;SDS011;19763;55.798;37.782;2022-11-20T04:42:55;16.60;;;11.25;;
33421;SDS011;19763;55.798;37.782;2022-11-20T04:45:22;14.48;;;10.70;;
33421;SDS011;19763;55.798;37.782;2022-11-20T04:47:48;13.85;;;10.18;;
33421;SDS011;19763;55.798;37.782;2022-11-20T04:50:14;17.13;;;11.15;;
33421;SDS011;19763;55.798;37.782;2022-11-20T04:52:40;14.95;;;10.77;;
33421;SDS011;19763;55.798;37.782;2022-11-20T04:55:06;14.25;;;11.10;;
33421;SDS011;19763;55.798;37.782;2022-11-20T04:57:32;16.33;;;11.07;;
33421;SDS011;19763;55.798;37.782;2022-11-20T04:59:58;12.93;;;9.80;;
33421;SDS011;19763;55.798;37.782;2022-11-20T05:02:23;14.18;;;10.43;;
33421;SDS011;19763;55.798;37.782;2022-11-20T05:04:49;13.38;;;9.93;;
33421;SDS011;19763;55.798;37.782;2022-11-20T05:07:15;15.27;;;11.02;;
33421;SDS011;19763;55.798;37.782;2022-11-20T05:09:40;13.13;;;10.40;;
33421;SDS011;19763;55.798;37.782;2022-11-20T05:12:09;15.25;;;11.13;;
33421;SDS011;19763;55.798;37.782;2022-11-20T05:14:35;15.32;;;10.88;;
33421;SDS011;19763;55.798;37.782;2022-11-20T05:17:00;14.13;;;10.98;;
33421;SDS011;19763;55.798;37.782;2022-11-20T05:19:26;15.45;;;11.63;;
33421;SDS011;19763;55.798;37.782;2022-11-20T05:21:52;15.40;;;11.57;;
33421;SDS011;19763;55.798;37.782;2022-11-20T05:24:17;17.45;;;10.85;;
33421;SDS011;19763;55.798;37.782;2022-11-20T05:26:43;15.43;;;10.65;;
33421;SDS011;19763;55.798;37.782;2022-11-20T05:29:09;15.63;;;12.23;;
33421;SDS011;19763;55.798;37.782;2022-11-20T05:31:36;15.80;;;11.57;;
33421;SDS011;19763;55.798;37.782;2022-11-20T05:34:04;16.20;;;11.63;;
33421;SDS011;19763;55.798;37.782;2022-11-20T05:36:30;18.92;;;12.68;;
33421;SDS011;19763;55.798;37.782;2022-11-20T05:38:56;17.23;;;12.30;;
33421;SDS011;19763;55.798;37.782;2022-11-20T05:41:21;15.07;;;11.10;;
33421;SDS011;19763;55.798;37.782;2022-11-20T05:43:48;17.92;;;13.20;;
33421;SDS011;19763;55.798;37.782;2022-11-20T05:46:15;16.85;;;12.40;;
33421;SDS011;19763;55.798;37.782;2022-11-20T05:48:43;19.67;;;12.35;;
33421;SDS011;19763;55.798;37.782;2022-11-20T05:51:10;17.00;;;11.63;;
33421;SDS011;19763;55.798;37.782;2022-11-20T05:53:37;16.65;;;11.88;;
33421;SDS011;19763;55.798;37.782;2022-11-20T05:56:04;16.58;;;11.88;;
33421;SDS011;19763;55.798;37.782;2022-11-20T05:58:43;15.52;;;11.88;;
33421;SDS011;19763;55.798;37.782;2022-11-20T06:01:11;18.35;;;12.98;;
33421;SDS011;19763;55.798;37.782;2022-11-20T06:03:39;16.35;;;11.68;;
33421;SDS011;19763;55.798;37.782;2022-11-20T06:06:07;17.60;;;12.43;;
33421;SDS011;19763;55.798;37.782;2022-11-20T06:08:34;17.48;;;12.40;;
33421;SDS011;19763;55.798;37.782;2022-11-20T06:11:04;16.98;;;11.65;;
33421;SDS011;19763;55.798;37.782;2022-11-20T06:13:30;17.23;;;12.60;;
33421;SDS011;19763;55.798;37.782;2022-11-20T06:15:56;20.05;;;13.98;;
33421;SDS011;19763;55.798;37.782;2022-11-20T06:18:23;16.92;;;12.65;;
33421;SDS011;19763;55.798;37.782;2022-11-20T06:20:58;17.10;;;11.98;;
33421;SDS011;19763;55.798;37.782;2022-11-20T06:23:33;19.75;;;13.00;;
33421;SDS011;19763;55.798;37.782;2022-11-20T06:26:04;14.45;;;11.32;;
33421;SDS011;19763;55.798;37.782;2022-11-20T06:28:40;17.02;;;12.55;;
33421;SDS011;19763;55.798;37.782;2022-11-20T06:31:07;17.73;;;12.05;;
33421;SDS011;19763;55.798;37.782;2022-11-20T06:33:35;17.23;;;11.80;;
33421;SDS011;19763;55.798;37.782;2022-11-20T06:36:00;15.85;;;11.80;;
33421;SDS011;19763;55.798;37.782;2022-11-20T06:38:27;16.95;;;12.02;;
33421;SDS011;19763;55.798;37.782;2022-11-20T06:40:53;17.88;;;12.77;;
33421;SDS011;19763;55.798;37.782;2022-11-20T06:43:19;16.55;;;12.60;;
33421;SDS011;19763;55.798;37.782;2022-11-20T06:45:45;18.65;;;12.77;;
33421;SDS011;19763;55.798;37.782;2022-11-20T06:48:11;16.55;;;12.60;;
33421;SDS011;19763;55.798;37.782;2022-11-20T06:50:37;16.33;;;12.50;;
33421;SDS011;19763;55.798;37.782;2022-11-20T06:53:03;15.90;;;12.18;;
33421;SDS011;19763;55.798;37.782;2022-11-20T06:55:30;14.52;;;11.32;;
33421;SDS011;19763;55.798;37.782;2022-11-20T06:57:56;16.60;;;12.40;;
33421;SDS011;19763;55.798;37.782;2022-11-20T07:00:22;16.42;;;12.40;;
33421;SDS011;19763;55.798;37.782;2022-11-20T07:02:48;22.50;;;13.82;;
33421;SDS011;19763;55.798;37.782;2022-11-20T07:05:15;17.75;;;12.55;;
33421;SDS011;19763;55.798;37.782;2022-11-20T07:07:40;18.58;;;12.32;;
33421;SDS011;19763;55.798;37.782;2022-11-20T07:10:06;17.23;;;11.60;;
33421;SDS011;19763;55.798;37.782;2022-11-20T07:12:32;16.63;;;12.40;;
33421;SDS011;19763;55.798;37.782;2022-11-20T07:14:58;17.95;;;13.07;;
33421;SDS011;19763;55.798;37.782;2022-11-20T07:17:23;18.35;;;13.50;;
33421;SDS011;19763;55.798;37.782;2022-11-20T07:19:49;15.82;;;12.00;;
33421;SDS011;19763;55.798;37.782;2022-11-20T07:22:15;17.67;;;12.25;;
33421;SDS011;19763;55.798;37.782;2022-11-20T07:24:40;17.27;;;12.90;;
33421;SDS011;19763;55.798;37.782;2022-11-20T07:27:06;18.35;;;13.10;;
33421;SDS011;19763;55.798;37.782;2022-11-20T07:29:31;17.88;;;12.68;;
33421;SDS011;19763;55.798;37.782;2022-11-20T07:31:57;18.58;;;13.35;;
33421;SDS011;19763;55.798;37.782;2022-11-20T07:34:22;17.58;;;12.52;;
33421;SDS011;19763;55.798;37.782;2022-11-20T07:36:48;18.80;;;12.80;;
33421;SDS011;19763;55.798;37.782;2022-11-20T07:39:14;18.30;;;13.52;;
33421;SDS011;19763;55.798;37.782;2022-11-20T07:41:39;18.45;;;13.73;;
33421;SDS011;19763;55.798;37.782;2022-11-20T07:44:05;17.63;;;12.25;;
33421;SDS011;19763;55.798;37.782;2022-11-20T07:46:30;17.60;;;13.95;;
33421;SDS011;19763;55.798;37.782;2022-11-20T07:48:56;21.67;;;13.82;;
33421;SDS011;19763;55.798;37.782;2022-11-20T07:51:22;17.88;;;12.80;;
33421;SDS011;19763;55.798;37.782;2022-11-20T07:53:50;19.80;;;14.00;;
33421;SDS011;19763;55.798;37.782;2022-11-20T07:56:16;18.73;;;14.18;;
33421;SDS011;19763;55.798;37.782;2022-11-20T07:58:42;18.83;;;14.15;;
33421;SDS011;19763;55.798;37.782;2022-11-20T08:01:07;20.08;;;14.73;;
33421;SDS011;19763;55.798;37.782;2022-11-20T08:03:33;18.30;;;13.82;;
33421;SDS011;19763;55.798;37.782;2022-11-20T08:05:59;19.52;;;13.20;;
33421;SDS011;19763;55.798;37.782;2022-11-20T08:08:28;17.63;;;12.93;;
33421;SDS011;19763;55.798;37.782;2022-11-20T08:10:56;18.15;;;13.80;;
33421;SDS011;19763;55.798;37.782;2022-11-20T08:13:42;18.73;;;13.52;;
33421;SDS011;19763;55.798;37.782;2022-11-20T08:16:26;21.42;;;13.60;;
33421;SDS011;19763;55.798;37.782;2022-11-20T08:18:53;16.80;;;13.27;;
33421;SDS011;19763;55.798;37.782;2022-11-20T08:21:18;21.33;;;14.10;;
33421;SDS011;19763;55.798;37.782;2022-11-20T08:23:44;19.83;;;13.85;;
33421;SDS011;19763;55.798;37.782;2022-11-20T08:26:10;19.30;;;13.93;;
33421;SDS011;19763;55.798;37.782;2022-11-20T08:28:35;21.83;;;14.90;;
33421;SDS011;19763;55.798;37.782;2022-11-20T08:31:01;21.10;;;14.63;;
33421;SDS011;19763;55.798;37.782;2022-11-20T08:33:28;20.58;;;15.73;;
33421;SDS011;19763;55.798;37.782;2022-11-20T08:35:58;29.05;;;19.75;;
33421;SDS011;19763;55.798;37.782;2022-11-20T08:38:27;21.85;;;15.60;;
33421;SDS011;19763;55.798;37.782;2022-11-20T08:40:55;22.02;;;15.45;;
33421;SDS011;19763;55.798;37.782;2022-11-20T08:43:40;23.13;;;15.70;;
33421;SDS011;19763;55.798;37.782;2022-11-20T08:46:06;20.98;;;15.85;;
33421;SDS011;19763;55.798;37.782;2022-11-20T08:48:31;21.27;;;15.45;;
33421;SDS011;19763;55.798;37.782;2022-11-20T08:50:57;20.50;;;14.38;;
33421;SDS011;19763;55.798;37.782;2022-11-20T08:53:24;24.38;;;15.95;;
33421;SDS011;19763;55.798;37.782;2022-11-20T08:55:50;20.40;;;14.30;;
33421;SDS011;19763;55.798;37.782;2022-11-20T08:58:15;23.10;;;16.50;;
33421;SDS011;19763;55.798;37.782;2022-11-20T09:00:41;27.55;;;17.75;;
33421;SDS011;19763;55.798;37.782;2022-11-20T09:03:06;23.25;;;16.27;;
33421;SDS011;19763;55.798;37.782;2022-11-20T09:05:32;24.40;;;16.98;;
33421;SDS011;19763;55.798;37.782;2022-11-20T09:07:58;22.55;;;16.00;;
33421;SDS011;19763;55.798;37.782;2022-11-20T09:10:24;24.08;;;17.15;;
33421;SDS011;19763;55.798;37.782;2022-11-20T09:12:50;32.00;;;21.13;;
33421;SDS011;19763;55.798;37.782;2022-11-20T09:15:17;24.80;;;18.40;;
33421;SDS011;19763;55.798;37.782;2022-11-20T09:17:50;24.92;;;16.58;;
33421;SDS011;19763;55.798;37.782;2022-11-20T09:20:16;25.23;;;17.02;;
33421;SDS011;19763;55.798;37.782;2022-11-20T09:22:42;23.13;;;17.42;;
33421;SDS011;19763;55.798;37.782;2022-11-20T09:25:08;22.50;;;16.83;;
33421;SDS011;19763;55.798;37.782;2022-11-20T09:27:34;21.33;;;15.82;;
33421;SDS011;19763;55.798;37.782;2022-11-20T09:30:00;25.10;;;16.60;;
33421;SDS011;19763;55.798;37.782;2022-11-20T09:32:26;23.60;;;16.77;;
33421;SDS011;19763;55.798;37.782;2022-11-20T09:34:52;24.40;;;17.48;;
33421;SDS011;19763;55.798;37.782;2022-11-20T09:37:17;25.42;;;16.58;;
33421;SDS011;19763;55.798;37.782;2022-11-20T09:39:43;26.05;;;17.20;;
33421;SDS011;19763;55.798;37.782;2022-11-20T09:47:45;26.48;;;17.80;;
33421;SDS011;19763;55.798;37.782;2022-11-20T09:50:33;23.48;;;16.65;;
33421;SDS011;19763;55.798;37.782;2022-11-20T09:55:49;30.33;;;18.92;;
33421;SDS011;19763;55.798;37.782;2022-11-20T09:58:33;25.92;;;17.13;;
33421;SDS011;19763;55.798;37.782;2022-11-20T10:01:12;26.25;;;19.48;;
33421;SDS011;19763;55.798;37.782;2022-11-20T10:03:45;28.60;;;19.35;;
33421;SDS011;19763;55.798;37.782;2022-11-20T10:06:15;27.00;;;18.73;;
33421;SDS011;19763;55.798;37.782;2022-11-20T10:26:22;36.42;;;22.17;;
33421;SDS011;19763;55.798;37.782;2022-11-20T10:34:01;34.03;;;20.45;;
33421;SDS011;19763;55.798;37.782;2022-11-20T10:36:34;35.75;;;21.98;;
33421;SDS011;19763;55.798;37.782;2022-11-20T10:39:06;34.47;;;22.02;;
33421;SDS011;19763;55.798;37.782;2022-11-20T10:41:41;39.72;;;21.27;;
33421;SDS011;19763;55.798;37.782;2022-11-20T10:44:26;35.53;;;21.92;;
33421;SDS011;19763;55.798;37.782;2022-11-20T10:47:16;40.05;;;22.63;;
33421;SDS011;19763;55.798;37.782;2022-11-20T10:49:43;37.13;;;23.40;;
33421;SDS011;19763;55.798;37.782;2022-11-20T10:57:52;48.65;;;24.77;;
33421;SDS011;19763;55.798;37.782;2022-11-20T11:00:37;41.63;;;23.45;;
33421;SDS011;19763;55.798;37.782;2022-11-20T11:03:07;39.17;;;23.98;;
33421;SDS011;19763;55.798;37.782;2022-11-20T11:06:28;38.03;;;22.48;;
33421;SDS011;19763;55.798;37.782;2022-11-20T11:08:38;41.30;;;24.25;;
33421;SDS011;19763;55.798;37.782;2022-11-20T11:13:49;41.03;;;25.13;;
33421;SDS011;19763;55.798;37.782;2022-11-20T11:16:23;42.47;;;24.85;;
33421;SDS011;19763;55.798;37.782;2022-11-20T11:18:50;44.50;;;22.90;;
33421;SDS011;19763;55.798;37.782;2022-11-20T11:21:22;40.45;;;24.80;;
33421;SDS011;19763;55.798;37.782;2022-11-20T11:23:57;35.97;;;21.92;;
33421;SDS011;19763;55.798;37.782;2022-11-20T11:26:24;46.92;;;24.65;;
33421;SDS011;19763;55.798;37.782;2022-11-20T11:28:54;41.47;;;24.35;;
33421;SDS011;19763;55.798;37.782;2022-11-20T11:31:29;44.75;;;23.92;;
33421;SDS011;19763;55.798;37.782;2022-11-20T11:34:05;39.45;;;21.85;;
33421;SDS011;19763;55.798;37.782;2022-11-20T11:36:38;41.03;;;23.20;;
33421;SDS011;19763;55.798;37.782;2022-11-20T11:39:05;40.17;;;24.35;;
33421;SDS011;19763;55.798;37.782;2022-11-20T11:41:36;45.50;;;26.67;;
33421;SDS011;19763;55.798;37.782;2022-11-20T11:44:36;46.30;;;24.02;;
33421;SDS011;19763;55.798;37.782;2022-11-20T11:50:00;40.25;;;24.23;;
33421;SDS011;19763;55.798;37.782;2022-11-20T11:52:41;37.83;;;22.80;;
33421;SDS011;19763;55.798;37.782;2022-11-20T11:55:22;37.88;;;22.50;;
33421;SDS011;19763;55.798;37.782;2022-11-20T12:03:29;32.63;;;21.40;;
33421;SDS011;19763;55.798;37.782;2022-11-20T12:06:06;38.30;;;22.05;;
33421;SDS011;19763;55.798;37.782;2022-11-20T12:08:49;33.20;;;21.67;;
33421;SDS011;19763;55.798;37.782;2022-11-20T12:11:23;33.58;;;22.10;;
33421;SDS011;19763;55.798;37.782;2022-11-20T12:16:42;33.45;;;20.05;;
33421;SDS011;19763;55.798;37.782;2022-11-20T12:19:08;38.50;;;21.73;;
33421;SDS011;19763;55.798;37.782;2022-11-20T12:29:56;34.78;;;21.30;;
33421;SDS011;19763;55.798;37.782;2022-11-20T12:37:54;35.42;;;22.10;;
33421;SDS011;19763;55.798;37.782;2022-11-20T12:43:21;33.80;;;19.92;;
33421;SDS011;19763;55.798;37.782;2022-11-20T12:54:42;29.33;;;18.95;;
33421;SDS011;19763;55.798;37.782;2022-11-20T12:57:35;28.63;;;17.60;;
33421;SDS011;19763;55.798;37.782;2022-11-20T13:08:18;26.20;;;18.30;;
33421;SDS011;19763;55.798;37.782;2022-11-20T13:18:44;33.53;;;19.60;;
33421;SDS011;19763;55.798;37.782;2022-11-20T13:21:14;24.48;;;16.52;;
33421;SDS011;19763;55.798;37.782;2022-11-20T13:23:40;31.58;;;19.85;;
33421;SDS011;19763;55.798;37.782;2022-11-20T13:26:13;31.92;;;19.55;;
33421;SDS011;19763;55.798;37.782;2022-11-20T13:28:41;36.15;;;18.85;;
33421;SDS011;19763;55.798;37.782;2022-11-20T13:31:23;38.15;;;19.88;;
33421;SDS011;19763;55.798;37.782;2022-11-20T13:34:01;32.00;;;19.20;;
33421;SDS011;19763;55.798;37.782;2022-11-20T13:36:31;30.55;;;18.27;;
33421;SDS011;19763;55.798;37.782;2022-11-20T13:38:59;33.33;;;17.90;;
33421;SDS011;19763;55.798;37.782;2022-11-20T13:41:25;29.13;;;18.05;;
33421;SDS011;19763;55.798;37.782;2022-11-20T13:46:36;31.45;;;18.35;;
33421;SDS011;19763;55.798;37.782;2022-11-20T13:49:32;34.13;;;19.15;;
33421;SDS011;19763;55.798;37.782;2022-11-20T13:52:04;28.10;;;17.33;;
33421;SDS011;19763;55.798;37.782;2022-11-20T13:57:37;38.10;;;19.58;;
33421;SDS011;19763;55.798;37.782;2022-11-20T14:00:15;31.50;;;18.75;;
33421;SDS011;19763;55.798;37.782;2022-11-20T14:05:50;31.38;;;18.17;;
33421;SDS011;19763;55.798;37.782;2022-11-20T14:08:23;37.58;;;20.23;;
33421;SDS011;19763;55.798;37.782;2022-11-20T14:13:52;35.95;;;19.45;;
33421;SDS011;19763;55.798;37.782;2022-11-20T14:16:21;35.83;;;19.13;;
33421;SDS011;19763;55.798;37.782;2022-11-20T14:18:48;37.17;;;20.42;;
33421;SDS011;19763;55.798;37.782;2022-11-20T14:21:23;32.58;;;18.95;;
33421;SDS011;19763;55.798;37.782;2022-11-20T14:24:09;33.07;;;19.30;;
33421;SDS011;19763;55.798;37.782;2022-11-20T14:26:37;29.90;;;17.70;;
33421;SDS011;19763;55.798;37.782;2022-11-20T14:29:12;35.47;;;19.65;;
33421;SDS011;19763;55.798;37.782;2022-11-20T14:31:39;33.88;;;20.75;;
33421;SDS011;19763;55.798;37.782;2022-11-20T14:34:12;32.42;;;19.05;;
33421;SDS011;19763;55.798;37.782;2022-11-20T14:36:42;31.45;;;19.38;;
33421;SDS011;19763;55.798;37.782;2022-11-20T14:39:12;36.53;;;19.75;;
33421;SDS011;19763;55.798;37.782;2022-11-20T14:41:52;36.22;;;19.98;;
33421;SDS011;19763;55.798;37.782;2022-11-20T14:44:19;33.15;;;19.35;;
33421;SDS011;19763;55.798;37.782;2022-11-20T14:46:49;27.65;;;17.92;;
33421;SDS011;19763;55.798;37.782;2022-11-20T14:49:16;27.98;;;17.23;;
33421;SDS011;19763;55.798;37.782;2022-11-20T14:51:42;26.38;;;15.63;;
33421;SDS011;19763;55.798;37.782;2022-11-20T14:54:08;25.48;;;17.75;;
33421;SDS011;19763;55.798;37.782;2022-11-20T14:56:40;26.50;;;17.58;;
33421;SDS011;19763;55.798;37.782;2022-11-20T14:59:06;24.70;;;17.20;;
33421;SDS011;19763;55.798;37.782;2022-11-20T15:01:33;29.35;;;18.55;;
33421;SDS011;19763;55.798;37.782;2022-11-20T15:04:00;28.48;;;17.65;;
33421;SDS011;19763;55.798;37.782;2022-11-20T15:06:25;30.67;;;18.45;;
33421;SDS011;19763;55.798;37.782;2022-11-20T15:08:52;28.88;;;17.63;;
33421;SDS011;19763;55.798;37.782;2022-11-20T15:11:18;27.27;;;17.05;;
33421;SDS011;19763;55.798;37.782;2022-11-20T15:13:48;28.08;;;17.70;;
33421;SDS011;19763;55.798;37.782;2022-11-20T15:16:18;25.95;;;16.67;;
33421;SDS011;19763;55.798;37.782;2022-11-20T15:18:45;28.33;;;17.70;;
33421;SDS011;19763;55.798;37.782;2022-11-20T15:21:12;29.02;;;18.27;;
33421;SDS011;19763;55.798;37.782;2022-11-20T15:23:40;29.35;;;18.35;;
33421;SDS011;19763;55.798;37.782;2022-11-20T15:26:06;24.40;;;17.83;;
33421;SDS011;19763;55.798;37.782;2022-11-20T15:28:37;26.70;;;18.15;;
33421;SDS011;19763;55.798;37.782;2022-11-20T15:31:06;34.55;;;18.63;;
33421;SDS011;19763;55.798;37.782;2022-11-20T15:33:32;28.17;;;16.58;;
33421;SDS011;19763;55.798;37.782;2022-11-20T15:35:59;23.40;;;15.43;;
33421;SDS011;19763;55.798;37.782;2022-11-20T15:38:25;27.88;;;17.77;;
33421;SDS011;19763;55.798;37.782;2022-11-20T15:40:50;32.35;;;19.63;;
33421;SDS011;19763;55.798;37.782;2022-11-20T15:43:16;29.45;;;17.63;;
33421;SDS011;19763;55.798;37.782;2022-11-20T15:48:40;28.92;;;16.50;;
33421;SDS011;19763;55.798;37.782;2022-11-20T15:53:34;31.25;;;19.13;;
33421;SDS011;19763;55.798;37.782;2022-11-20T15:56:00;31.80;;;18.67;;
33421;SDS011;19763;55.798;37.782;2022-11-20T15:58:26;27.00;;;17.45;;
33421;SDS011;19763;55.798;37.782;2022-11-20T16:00:52;29.13;;;17.63;;
33421;SDS011;19763;55.798;37.782;2022-11-20T16:03:18;28.10;;;17.48;;
33421;SDS011;19763;55.798;37.782;2022-11-20T16:05:44;26.48;;;17.23;;
33421;SDS011;19763;55.798;37.782;2022-11-20T16:08:10;30.67;;;17.45;;
33421;SDS011;19763;55.798;37.782;2022-11-20T16:10:36;41.95;;;20.63;;
33421;SDS011;19763;55.798;37.782;2022-11-20T16:13:02;33.55;;;19.77;;
33421;SDS011;19763;55.798;37.782;2022-11-20T16:15:50;31.92;;;18.50;;
33421;SDS011;19763;55.798;37.782;2022-11-20T16:18:18;35.70;;;19.52;;
33421;SDS011;19763;55.798;37.782;2022-11-20T16:20:47;27.70;;;18.48;;